Time;durP1;ratioP1;P1;durP2;ratioP2;P2;SDS_P1;SDS_P2;PMS_P1;PMS_P2;Temp;Humidity;BMP_temperature;BMP_pressure;BME280_temperature;BME280_humidity;BME280_pressure;Samples;Min_cycle;Max_cycle;Signal;HPM_P1;HPM_P2
2023/11/15 00:01:07;;;;;;;4.88;1.00;;;;;;;14.08;81.84;99631.38;4961459;28;98501;-69
2023/11/15 00:03:34;;;;;;;4.10;1.05;;;;;;;13.91;83.23;99632.47;4963376;28;98978;-69
2023/11/15 00:06:00;;;;;;;3.35;1.08;;;;;;;14.00;83.67;99636.34;4967346;28;98966;-70
2023/11/15 00:08:27;;;;;;;3.83;1.48;;;;;;;14.17;83.17;99637.88;4966868;28;98469;-69
2023/11/15 00:10:53;;;;;;;3.55;1.17;;;;;;;14.23;82.57;99634.78;4972683;28;98479;-70
2023/11/15 00:13:19;;;;;;;4.45;0.70;;;;;;;14.06;83.45;99648.34;4966540;28;97724;-69
2023/11/15 00:15:47;;;;;;;6.00;1.73;;;;;;;14.04;83.60;99626.38;4966917;28;98727;-69
2023/11/15 00:18:16;;;;;;;2.88;0.90;;;;;;;14.09;83.41;99645.50;4959113;28;96999;-69
2023/11/15 00:20:43;;;;;;;8.55;1.15;;;;;;;14.08;83.19;99646.44;4967482;28;96948;-69
2023/11/15 00:23:10;;;;;;;5.10;1.20;;;;;;;13.77;84.27;99642.34;4969137;28;99573;-69
2023/11/15 00:25:37;;;;;;;5.88;1.35;;;;;;;13.71;85.56;99648.91;4970084;28;99021;-69
2023/11/15 00:28:04;;;;;;;5.00;1.23;;;;;;;13.73;85.28;99646.13;4963874;28;97208;-70
2023/11/15 00:30:30;;;;;;;5.53;0.85;;;;;;;14.15;83.66;99647.75;4965992;28;97707;-70
2023/11/15 00:32:58;;;;;;;11.20;1.80;;;;;;;14.26;83.04;99650.50;4958930;28;97382;-70
2023/11/15 00:35:25;;;;;;;7.25;1.20;;;;;;;14.27;82.22;99647.75;4964490;28;97937;-69
2023/11/15 00:37:51;;;;;;;9.95;1.63;;;;;;;14.36;81.65;99651.59;4963224;28;96766;-69
2023/11/15 00:40:18;;;;;;;4.63;0.80;;;;;;;14.39;81.79;99656.72;4964818;28;97165;-70
2023/11/15 00:42:44;;;;;;;4.40;1.10;;;;;;;14.46;81.60;99651.84;4967143;28;99105;-70
2023/11/15 00:45:11;;;;;;;5.32;0.95;;;;;;;14.40;81.45;99663.75;4965207;28;99352;-69
2023/11/15 00:47:38;;;;;;;3.15;1.10;;;;;;;14.50;80.80;99670.16;4969747;28;98464;-70
2023/11/15 00:50:07;;;;;;;4.72;1.15;;;;;;;14.28;81.66;99662.75;4966201;28;97025;-69
2023/11/15 00:52:34;;;;;;;7.63;1.27;;;;;;;14.13;82.17;99670.88;4963053;28;98904;-70
2023/11/15 00:55:01;;;;;;;5.00;1.40;;;;;;;14.41;81.01;99673.44;4969476;28;99112;-70
2023/11/15 00:57:27;;;;;;;4.25;0.90;;;;;;;14.26;81.79;99682.41;4961560;28;96763;-70
2023/11/15 00:59:54;;;;;;;8.90;1.20;;;;;;;14.19;82.23;99681.97;4966213;28;96781;-70
2023/11/15 01:02:20;;;;;;;2.10;1.20;;;;;;;14.18;82.20;99690.03;4961459;28;98987;-69
2023/11/15 01:04:49;;;;;;;4.65;0.88;;;;;;;14.23;82.56;99694.09;4963879;28;98848;-74
2023/11/15 01:07:16;;;;;;;7.30;1.35;;;;;;;14.20;81.72;99690.78;4967195;28;97035;-74
2023/11/15 01:09:43;;;;;;;3.15;1.20;;;;;;;14.40;81.65;99695.66;4961246;28;96885;-75
2023/11/15 01:12:09;;;;;;;8.13;1.50;;;;;;;14.24;82.26;99695.78;4968805;28;97551;-75
2023/11/15 01:14:36;;;;;;;2.88;0.90;;;;;;;14.33;81.95;99697.84;4962779;28;99257;-75
2023/11/15 01:17:03;;;;;;;2.10;1.00;;;;;;;14.26;82.31;99703.66;4965965;28;98599;-75
2023/11/15 01:19:30;;;;;;;4.32;1.30;;;;;;;14.12;83.47;99701.91;4960779;28;96783;-75
2023/11/15 01:21:57;;;;;;;4.07;1.13;;;;;;;13.96;84.49;99706.56;4967300;28;99043;-75
2023/11/15 01:24:25;;;;;;;6.50;1.98;;;;;;;14.01;84.54;99704.44;4965030;28;98711;-75
2023/11/15 01:26:51;;;;;;;2.75;1.02;;;;;;;14.22;83.85;99703.03;4967753;28;98818;-75
2023/11/15 01:29:18;;;;;;;2.42;1.00;;;;;;;14.22;83.41;99710.13;4964969;28;97754;-75
2023/11/15 01:31:44;;;;;;;4.15;1.02;;;;;;;14.26;83.14;99703.66;4965147;28;99077;-75
2023/11/15 01:34:12;;;;;;;3.75;1.13;;;;;;;14.18;83.35;99708.63;4964751;28;99627;-75
2023/11/15 01:36:39;;;;;;;4.50;1.20;;;;;;;14.44;82.03;99713.06;4966940;28;99282;-75
2023/11/15 01:39:06;;;;;;;5.90;1.17;;;;;;;14.44;81.60;99713.06;4966025;28;96840;-75
2023/11/15 01:41:34;;;;;;;8.07;1.13;;;;;;;14.73;80.75;99711.09;4963428;28;99012;-75
2023/11/15 01:44:00;;;;;;;3.92;1.33;;;;;;;14.70;80.54;99721.97;4963694;28;99126;-75
2023/11/15 01:46:27;;;;;;;4.70;1.20;;;;;;;14.46;81.19;99716.50;4961938;28;96767;-76
2023/11/15 01:48:53;;;;;;;6.15;1.67;;;;;;;14.33;81.72;99724.41;4969737;28;96790;-75
2023/11/15 01:51:20;;;;;;;9.55;1.77;;;;;;;14.05;83.24;99721.88;4965177;28;97253;-75
2023/11/15 01:53:47;;;;;;;4.32;1.60;;;;;;;14.03;83.92;99728.25;4963562;28;98363;-75
2023/11/15 01:56:14;;;;;;;7.30;1.50;;;;;;;14.24;82.59;99730.31;4972328;28;96746;-75
2023/11/15 01:58:42;;;;;;;9.10;1.80;;;;;;;14.32;81.95;99725.34;4972703;28;96794;-76
2023/11/15 02:01:10;;;;;;;4.38;1.60;;;;;;;14.44;81.67;99734.34;4970725;28;99419;-75
2023/11/15 02:03:37;;;;;;;5.05;1.67;;;;;;;14.55;81.22;99731.81;4960939;28;98561;-76
2023/11/15 02:06:06;;;;;;;6.43;1.83;;;;;;;14.28;81.89;99736.31;4968751;28;98475;-76
2023/11/15 02:08:33;;;;;;;6.82;1.80;;;;;;;14.44;81.18;99744.97;4969570;28;97557;-74
2023/11/15 02:10:59;;;;;;;5.65;1.73;;;;;;;14.44;81.36;99738.84;4965395;28;98183;-75
2023/11/15 02:13:27;;;;;;;7.03;1.73;;;;;;;14.49;80.82;99740.22;4964996;28;102110;-75
2023/11/15 02:15:56;;;;;;;9.07;1.60;;;;;;;14.09;82.69;99736.66;4969231;28;98300;-75
2023/11/15 02:18:22;;;;;;;5.75;1.85;;;;;;;14.45;81.38;99746.69;4972519;28;96746;-75
2023/11/15 02:20:49;;;;;;;8.23;2.15;;;;;;;14.39;81.44;99747.09;4967123;28;99273;-75
2023/11/15 02:23:19;;;;;;;3.25;1.63;;;;;;;14.55;80.69;99746.94;4967823;28;99364;-74
2023/11/15 02:25:46;;;;;;;3.63;1.73;;;;;;;14.44;81.20;99750.28;4965271;28;96858;-75
2023/11/15 02:28:13;;;;;;;8.63;2.05;;;;;;;14.50;80.98;99759.69;4970684;28;97863;-75
2023/11/15 02:30:40;;;;;;;6.10;1.83;;;;;;;14.25;81.26;99760.41;4969332;28;99042;-74
2023/11/15 02:33:06;;;;;;;5.55;2.10;;;;;;;14.43;81.20;99767.22;4969491;28;98756;-75
2023/11/15 02:35:33;;;;;;;8.27;2.10;;;;;;;14.30;81.49;99776.91;4962641;28;96939;-75
2023/11/15 02:37:59;;;;;;;10.63;2.03;;;;;;;14.22;82.25;99772.09;4966336;28;96880;-73
2023/11/15 02:40:26;;;;;;;5.07;1.90;;;;;;;14.42;81.03;99777.94;4966000;28;101218;-75
2023/11/15 02:42:54;;;;;;;8.98;1.98;;;;;;;14.24;81.62;99779.97;4967490;28;102016;-75
2023/11/15 02:45:20;;;;;;;3.63;2.00;;;;;;;14.12;82.65;99781.63;4971775;28;96849;-75
2023/11/15 02:47:47;;;;;;;5.22;1.88;;;;;;;14.13;82.11;99791.28;4965174;28;96847;-75
2023/11/15 02:50:14;;;;;;;7.55;2.38;;;;;;;14.47;80.96;99789.97;4965394;28;99446;-75
2023/11/15 02:52:41;;;;;;;4.88;2.20;;;;;;;14.44;80.82;99786.66;4960506;28;101927;-75
2023/11/15 02:55:08;;;;;;;7.03;2.20;;;;;;;14.40;80.83;99788.66;4972092;28;96836;-75
2023/11/15 02:57:35;;;;;;;10.98;2.28;;;;;;;14.38;80.37;99790.56;4969134;28;97151;-75
2023/11/15 03:00:04;;;;;;;6.78;1.80;;;;;;;14.43;80.10;99806.22;4972973;28;99375;-75
2023/11/15 03:02:32;;;;;;;6.47;1.98;;;;;;;14.41;80.19;99806.31;4969753;28;98937;-75
2023/11/15 03:04:58;;;;;;;8.05;2.15;;;;;;;14.60;79.29;99806.81;4968218;28;97445;-76
2023/11/15 03:07:25;;;;;;;6.65;2.25;;;;;;;14.61;78.93;99811.16;4966546;28;97171;-75
2023/11/15 03:09:51;;;;;;;6.60;1.95;;;;;;;14.35;80.13;99812.88;4968286;28;99176;-75
2023/11/15 03:12:19;;;;;;;5.63;1.50;;;;;;;14.52;79.69;99819.75;4959714;28;97415;-75
2023/11/15 03:14:46;;;;;;;8.05;2.03;;;;;;;14.60;79.56;99820.09;4968306;28;97675;-75
2023/11/15 03:17:16;;;;;;;7.57;2.55;;;;;;;14.27;80.60;99827.59;4961560;28;97550;-75
2023/11/15 03:19:43;;;;;;;8.77;1.88;;;;;;;14.33;80.99;99832.50;4965221;28;100713;-76
2023/11/15 03:22:09;;;;;;;11.98;3.58;;;;;;;14.40;80.29;99848.94;4963992;28;100760;-75
2023/11/15 03:24:37;;;;;;;4.72;1.77;;;;;;;14.16;81.47;99851.34;4969914;28;98889;-75
2023/11/15 03:27:04;;;;;;;5.78;1.38;;;;;;;14.07;80.86;99847.47;4967793;28;98413;-75
2023/11/15 03:29:32;;;;;;;3.88;1.83;;;;;;;14.39;79.56;99866.69;4964604;28;101975;-75
2023/11/15 03:31:58;;;;;;;10.23;2.97;;;;;;;14.44;78.96;99869.06;4958802;28;98811;-74
2023/11/15 03:34:26;;;;;;;7.93;1.83;;;;;;;14.61;77.95;99869.66;4963440;28;97088;-75
2023/11/15 03:36:53;;;;;;;7.85;1.83;;;;;;;14.84;76.71;99883.22;4966532;28;99832;-75
2023/11/15 03:39:20;;;;;;;6.72;1.70;;;;;;;14.54;77.18;99879.00;4964272;28;99367;-75
2023/11/15 03:41:46;;;;;;;8.52;2.08;;;;;;;14.50;77.14;99888.13;4964548;28;98866;-75
2023/11/15 03:44:14;;;;;;;3.65;1.42;;;;;;;14.44;75.89;99882.34;4961322;28;96840;-74
2023/11/15 03:46:40;;;;;;;5.22;1.50;;;;;;;14.30;76.59;99881.41;4966598;28;96805;-75
2023/11/15 03:49:06;;;;;;;10.52;1.48;;;;;;;14.25;76.88;99887.94;4963860;28;98847;-74
2023/11/15 03:51:34;;;;;;;5.45;1.20;;;;;;;14.32;75.77;99899.88;4971045;28;98905;-75
2023/11/15 03:54:01;;;;;;;6.45;1.42;;;;;;;14.07;76.47;99899.75;4962492;28;96862;-74
2023/11/15 03:56:27;;;;;;;7.45;1.67;;;;;;;14.11;77.11;99904.75;4962762;28;96747;-74
2023/11/15 03:58:54;;;;;;;7.13;1.50;;;;;;;14.27;75.86;99909.97;4970194;28;97730;-74
2023/11/15 04:01:20;;;;;;;6.35;1.73;;;;;;;14.21;76.06;99913.03;4978648;28;98766;-75
2023/11/15 04:03:46;;;;;;;8.48;1.45;;;;;;;14.39;74.51;99914.53;4975265;28;96808;-75
2023/11/15 04:06:12;;;;;;;3.10;1.10;;;;;;;14.28;74.89;99919.66;4961212;28;97262;-74
2023/11/15 04:08:40;;;;;;;9.32;1.25;;;;;;;14.22;74.61;99923.56;4966898;28;98942;-75
2023/11/15 04:11:07;;;;;;;6.30;1.15;;;;;;;13.90;75.60;99925.59;4966285;28;99107;-75
2023/11/15 04:13:35;;;;;;;6.40;1.60;;;;;;;13.77;76.54;99937.91;4965958;28;96766;-75
2023/11/15 04:16:01;;;;;;;6.65;1.80;;;;;;;13.83;76.78;99945.50;4969020;28;98365;-75
2023/11/15 04:18:28;;;;;;;8.52;1.67;;;;;;;13.88;76.11;99956.69;4963903;28;99078;-75
2023/11/15 04:20:54;;;;;;;6.15;1.58;;;;;;;13.76;75.47;99964.53;4965468;28;99217;-73
2023/11/15 04:23:20;;;;;;;5.03;1.35;;;;;;;14.08;74.45;99957.25;4966716;28;97062;-73
2023/11/15 04:25:48;;;;;;;3.70;1.00;;;;;;;13.90;73.43;99965.41;4964915;28;96840;-74
2023/11/15 04:28:14;;;;;;;6.13;1.30;;;;;;;14.03;73.21;99968.16;4967871;28;101063;-74
2023/11/15 04:30:41;;;;;;;5.57;1.10;;;;;;;14.23;72.16;99978.41;4972574;28;99760;-74
2023/11/15 04:33:08;;;;;;;5.43;1.08;;;;;;;14.19;71.04;99986.66;4964176;28;96803;-74
2023/11/15 04:35:34;;;;;;;3.70;1.00;;;;;;;14.21;70.89;99987.41;4968225;28;96767;-74
2023/11/15 04:38:03;;;;;;;5.43;1.45;;;;;;;14.19;71.05;100005.25;4958736;28;99468;-73
2023/11/15 04:40:30;;;;;;;3.00;1.20;;;;;;;14.28;69.70;99994.06;4965898;28;98845;-74
2023/11/15 04:42:58;;;;;;;4.85;0.60;;;;;;;13.70;70.22;100015.34;4967711;28;96853;-73
2023/11/15 04:45:24;;;;;;;2.47;0.80;;;;;;;13.48;69.97;100021.94;4965137;28;96907;-70
2023/11/15 04:47:50;;;;;;;8.73;2.90;;;;;;;13.71;69.39;100022.38;4967950;28;98024;-70
2023/11/15 04:50:17;;;;;;;3.53;0.90;;;;;;;13.59;68.69;100023.94;4957126;28;99198;-69
2023/11/15 04:52:43;;;;;;;3.17;1.00;;;;;;;13.57;68.90;100039.13;4969322;28;97106;-69
2023/11/15 04:55:11;;;;;;;1.88;0.68;;;;;;;13.61;69.61;100040.66;4961191;28;97683;-69
2023/11/15 04:57:37;;;;;;;1.85;0.60;;;;;;;13.56;69.20;100048.03;4964805;28;99025;-69
2023/11/15 05:00:10;;;;;;;2.35;0.80;;;;;;;13.50;69.22;100051.91;4966068;28;98781;-69
2023/11/15 05:02:37;;;;;;;4.75;1.15;;;;;;;13.47;69.84;100053.88;4973960;28;96794;-69
2023/11/15 05:05:04;;;;;;;2.05;0.70;;;;;;;13.38;69.47;100054.41;4967820;28;96989;-70
2023/11/15 05:07:32;;;;;;;3.80;0.75;;;;;;;13.25;69.37;100056.06;4968658;28;102843;-71
2023/11/15 05:09:59;;;;;;;3.30;0.90;;;;;;;12.85;70.98;100066.22;4968659;28;102051;-70
2023/11/15 05:12:25;;;;;;;5.45;0.95;;;;;;;13.23;69.83;100063.25;4965725;28;98662;-70
2023/11/15 05:14:51;;;;;;;2.17;0.60;;;;;;;13.43;69.61;100068.28;4968432;28;97270;-70
2023/11/15 05:17:19;;;;;;;2.30;0.80;;;;;;;13.26;69.70;100076.34;4961707;28;98956;-68
2023/11/15 05:19:45;;;;;;;1.38;0.70;;;;;;;12.83;69.73;100080.50;4963432;28;98733;-69
2023/11/15 05:22:12;;;;;;;1.35;0.80;;;;;;;13.10;69.32;100084.28;4963937;28;99492;-69
2023/11/15 05:24:39;;;;;;;2.42;0.68;;;;;;;13.22;68.38;100088.91;4967608;28;97188;-70
2023/11/15 05:27:05;;;;;;;1.75;0.60;;;;;;;13.15;68.99;100096.38;4967064;28;99219;-70
2023/11/15 05:29:32;;;;;;;3.15;0.85;;;;;;;13.15;67.80;100100.81;4964037;28;98983;-71
2023/11/15 05:31:59;;;;;;;1.80;1.00;;;;;;;13.01;67.91;100106.00;4974683;28;97076;-71
2023/11/15 05:34:27;;;;;;;1.75;0.95;;;;;;;12.70;67.95;100120.09;4972703;28;96919;-71
2023/11/15 05:36:53;;;;;;;1.55;0.80;;;;;;;12.37;69.14;100101.53;4962316;28;100419;-71
2023/11/15 05:39:21;;;;;;;0.90;0.70;;;;;;;12.58;67.74;100123.41;4968740;28;100538;-71
2023/11/15 05:41:48;;;;;;;1.13;0.75;;;;;;;12.60;68.24;100118.88;4968169;28;96864;-71
2023/11/15 05:44:14;;;;;;;1.20;1.05;;;;;;;12.72;68.24;100120.88;4973618;28;96826;-71
2023/11/15 05:46:41;;;;;;;1.40;0.60;;;;;;;12.35;68.47;100136.06;4968351;28;99077;-70
2023/11/15 05:49:07;;;;;;;2.45;0.90;;;;;;;12.30;68.70;100145.19;4978851;28;98801;-71
2023/11/15 05:51:35;;;;;;;2.60;0.90;;;;;;;12.71;67.33;100148.31;4975831;28;97736;-69
2023/11/15 05:54:04;;;;;;;0.80;0.77;;;;;;;12.72;67.24;100157.97;4972714;28;96881;-70
2023/11/15 05:56:31;;;;;;;1.40;0.98;;;;;;;12.67;66.89;100162.66;4972454;28;97837;-70
2023/11/15 05:58:57;;;;;;;2.25;0.90;;;;;;;12.72;67.77;100160.63;4971388;28;98831;-71
2023/11/15 06:01:24;;;;;;;3.95;1.38;;;;;;;12.94;67.00;100177.09;4970459;28;96778;-70
2023/11/15 06:03:50;;;;;;;3.20;1.35;;;;;;;12.88;66.82;100176.56;4971808;28;96876;-70
2023/11/15 06:06:17;;;;;;;2.60;1.17;;;;;;;12.77;67.33;100182.44;4977463;28;99032;-71
2023/11/15 06:08:45;;;;;;;2.55;1.25;;;;;;;12.97;66.71;100182.22;4971942;28;99084;-70
2023/11/15 06:11:12;;;;;;;2.25;1.05;;;;;;;12.96;66.88;100191.13;4969700;28;97805;-70
2023/11/15 06:13:39;;;;;;;1.50;1.40;;;;;;;12.83;66.97;100190.06;4984763;28;96866;-70
2023/11/15 06:16:07;;;;;;;5.57;2.40;;;;;;;12.64;67.20;100199.94;4976976;28;99616;-70
2023/11/15 06:18:35;;;;;;;1.90;1.45;;;;;;;12.26;69.49;100207.22;4970340;28;99832;-70
2023/11/15 06:21:01;;;;;;;1.40;1.20;;;;;;;12.58;69.22;100197.59;4969140;28;97928;-69
2023/11/15 06:23:28;;;;;;;3.47;1.38;;;;;;;12.66;68.75;100214.84;4973477;28;96993;-70
2023/11/15 06:25:56;;;;;;;6.72;1.90;;;;;;;12.66;69.04;100220.13;4974332;28;98983;-70
2023/11/15 06:28:23;;;;;;;2.47;1.60;;;;;;;12.47;70.02;100224.66;4966269;28;98904;-70
2023/11/15 06:30:49;;;;;;;3.83;1.58;;;;;;;12.46;69.67;100235.34;4957054;28;97075;-70
2023/11/15 06:33:16;;;;;;;3.13;2.00;;;;;;;12.27;71.42;100228.31;4956882;28;96778;-69
2023/11/15 06:35:44;;;;;;;4.28;1.55;;;;;;;12.41;70.96;100234.69;4955962;28;100317;-69
2023/11/15 06:38:11;;;;;;;2.42;1.70;;;;;;;12.25;71.45;100243.44;4957211;28;99148;-69
2023/11/15 06:40:37;;;;;;;2.53;1.95;;;;;;;12.13;72.24;100248.50;4955937;28;97665;-70
2023/11/15 06:43:06;;;;;;;5.10;2.03;;;;;;;12.48;71.12;100252.00;4955684;28;97507;-72
2023/11/15 06:45:33;;;;;;;3.22;1.95;;;;;;;12.54;71.15;100257.84;4966677;28;102276;-71
2023/11/15 06:48:00;;;;;;;3.20;1.80;;;;;;;12.14;72.24;100266.94;4967835;28;101912;-72
2023/11/15 06:50:26;;;;;;;1.75;1.65;;;;;;;12.14;72.59;100269.59;4970403;28;98659;-71
2023/11/15 06:52:53;;;;;;;2.58;2.20;;;;;;;12.43;72.23;100265.50;4962040;28;97288;-71
2023/11/15 06:55:19;;;;;;;3.60;1.90;;;;;;;12.44;71.82;100274.31;4968873;28;99410;-71
2023/11/15 06:57:46;;;;;;;3.97;1.95;;;;;;;12.43;71.86;100281.41;4958831;28;98753;-71
2023/11/15 07:00:14;;;;;;;2.72;2.42;;;;;;;12.57;71.58;100288.66;4971892;28;97280;-71
2023/11/15 07:02:41;;;;;;;2.85;2.58;;;;;;;12.63;71.12;100293.63;4967502;28;97874;-71
2023/11/15 07:05:10;;;;;;;3.72;2.30;;;;;;;12.33;72.29;100294.25;4956976;28;98848;-72
2023/11/15 07:07:36;;;;;;;2.70;2.20;;;;;;;12.49;71.47;100291.69;4965385;28;97714;-72
2023/11/15 07:10:05;;;;;;;3.42;2.40;;;;;;;12.26;71.86;100284.91;4968584;28;96891;-74
2023/11/15 07:12:34;;;;;;;4.55;2.40;;;;;;;12.21;72.54;100308.09;4969376;28;96990;-75
2023/11/15 07:15:01;;;;;;;2.95;2.30;;;;;;;12.47;71.89;100309.44;4968745;28;101482;-75
2023/11/15 07:17:28;;;;;;;3.80;2.38;;;;;;;12.48;71.32;100316.47;4964646;28;98949;-75
2023/11/15 07:19:55;;;;;;;3.05;2.15;;;;;;;12.23;72.84;100329.22;4971885;28;96743;-76
2023/11/15 07:22:21;;;;;;;2.42;2.17;;;;;;;12.32;71.73;100329.63;4970644;28;96926;-75
2023/11/15 07:24:48;;;;;;;4.95;2.03;;;;;;;12.36;72.00;100328.53;4965877;28;101752;-75
2023/11/15 07:27:17;;;;;;;2.47;2.10;;;;;;;12.55;71.44;100332.91;4969162;28;99884;-75
2023/11/15 07:29:45;;;;;;;2.83;2.10;;;;;;;12.68;69.99;100342.84;4972392;28;96961;-75
2023/11/15 07:32:11;;;;;;;2.50;1.90;;;;;;;12.50;70.60;100346.41;4971926;28;96814;-75
2023/11/15 07:34:40;;;;;;;2.53;2.10;;;;;;;12.84;70.42;100366.78;4963531;28;98447;-74
2023/11/15 07:37:06;;;;;;;2.45;2.03;;;;;;;12.49;70.12;100365.03;4970051;28;98924;-74
2023/11/15 07:39:33;;;;;;;4.05;2.10;;;;;;;12.71;70.46;100376.28;4970680;28;96740;-75
2023/11/15 07:42:00;;;;;;;4.55;2.20;;;;;;;12.52;70.27;100370.19;4967200;28;96997;-75
2023/11/15 07:44:27;;;;;;;2.10;1.90;;;;;;;12.55;70.05;100383.28;4966677;28;99350;-75
2023/11/15 07:46:54;;;;;;;3.38;1.95;;;;;;;12.80;69.19;100382.94;4965391;28;99279;-75
2023/11/15 07:49:23;;;;;;;4.78;2.53;;;;;;;12.71;69.37;100397.50;4969423;28;96819;-74
2023/11/15 07:51:51;;;;;;;2.83;2.45;;;;;;;12.32;71.05;100393.22;4964939;28;99153;-77
2023/11/15 07:54:19;;;;;;;2.35;2.15;;;;;;;12.65;69.96;100397.81;4963685;28;97594;-74
2023/11/15 07:56:46;;;;;;;2.78;2.22;;;;;;;12.74;69.07;100397.31;4963400;28;99185;-75
2023/11/15 07:59:12;;;;;;;2.83;2.40;;;;;;;12.65;69.44;100408.41;4963112;28;98117;-73
2023/11/15 08:01:41;;;;;;;3.03;2.15;;;;;;;12.48;70.59;100417.16;4960644;28;98391;-74
2023/11/15 08:04:07;;;;;;;4.47;2.30;;;;;;;12.67;69.92;100425.06;4962311;28;101891;-74
2023/11/15 08:06:36;;;;;;;2.70;2.50;;;;;;;12.74;70.25;100422.06;4963389;28;99296;-76
2023/11/15 08:09:04;;;;;;;3.65;2.97;;;;;;;12.35;71.66;100424.00;4965932;28;96780;-77
2023/11/15 08:11:30;;;;;;;4.03;2.50;;;;;;;12.77;69.73;100435.16;4964360;28;99749;-76
2023/11/15 08:13:57;;;;;;;4.05;2.45;;;;;;;12.50;70.81;100430.34;4968938;28;97837;-73
2023/11/15 08:16:27;;;;;;;6.63;2.75;;;;;;;12.59;70.34;100437.88;4970470;28;99156;-75
2023/11/15 08:18:53;;;;;;;2.90;2.70;;;;;;;12.80;69.57;100439.44;4967152;28;96850;-74
2023/11/15 08:21:21;;;;;;;5.63;2.55;;;;;;;12.60;69.31;100442.25;4966687;28;97167;-75
2023/11/15 08:23:47;;;;;;;2.97;2.67;;;;;;;12.81;69.22;100454.41;4975807;28;99452;-75
2023/11/15 08:26:19;;;;;;;3.45;2.80;;;;;;;12.93;68.88;100448.50;4972897;28;98810;-74
2023/11/15 08:28:46;;;;;;;2.97;2.78;;;;;;;12.93;68.86;100468.91;4976653;28;97187;-73
2023/11/15 08:31:14;;;;;;;7.80;2.80;;;;;;;13.13;67.82;100464.31;4958281;28;97271;-74
2023/11/15 08:33:44;;;;;;;4.50;3.20;;;;;;;13.22;67.55;100470.09;4966573;28;99163;-73
2023/11/15 08:36:12;;;;;;;4.72;3.28;;;;;;;13.36;66.85;100478.22;4963851;28;99274;-74
2023/11/15 08:38:38;;;;;;;4.38;3.10;;;;;;;13.19;66.52;100488.84;4961273;28;98437;-74
2023/11/15 08:41:05;;;;;;;5.82;3.40;;;;;;;12.77;68.11;100488.19;4964865;28;98361;-75
2023/11/15 08:43:33;;;;;;;5.22;2.83;;;;;;;12.63;69.80;100495.09;4975767;28;99035;-74
2023/11/15 08:46:01;;;;;;;3.92;2.97;;;;;;;12.82;69.18;100498.56;4971601;28;99381;-70
2023/11/15 08:48:27;;;;;;;7.32;3.22;;;;;;;13.07;67.69;100503.53;4966396;28;98964;-71
2023/11/15 08:50:54;;;;;;;4.82;3.00;;;;;;;12.95;67.95;100512.94;4965442;28;97495;-71
2023/11/15 08:53:25;;;;;;;4.55;3.20;;;;;;;12.88;67.81;100508.88;4968756;28;99739;-71
2023/11/15 08:55:51;;;;;;;5.70;3.83;;;;;;;13.01;67.74;100514.44;4961544;28;100970;-70
2023/11/15 08:58:17;;;;;;;4.07;3.33;;;;;;;13.21;67.47;100519.66;4957946;28;97654;-72
2023/11/15 09:00:46;;;;;;;6.10;3.30;;;;;;;13.19;67.02;100523.34;4967544;28;96800;-71
2023/11/15 09:03:14;;;;;;;4.28;3.30;;;;;;;13.05;67.19;100524.84;4960362;28;101607;-70
2023/11/15 09:05:44;;;;;;;4.68;3.25;;;;;;;13.25;66.63;100528.34;4962614;28;99183;-71
2023/11/15 09:08:11;;;;;;;5.75;3.13;;;;;;;13.16;66.58;100525.19;4966735;28;97322;-70
2023/11/15 09:10:37;;;;;;;3.47;2.88;;;;;;;12.96;67.40;100540.34;4966462;28;97398;-71
2023/11/15 09:13:08;;;;;;;11.07;6.88;;;;;;;12.99;67.08;100541.06;4966676;28;98310;-71
2023/11/15 09:15:34;;;;;;;9.68;4.18;;;;;;;13.18;66.18;100550.81;4967291;28;98974;-71
2023/11/15 09:18:04;;;;;;;5.03;3.63;;;;;;;12.90;66.87;100554.75;4969767;28;97870;-70
2023/11/15 09:20:32;;;;;;;6.15;3.00;;;;;;;13.11;66.59;100555.50;4968593;28;98689;-73
2023/11/15 09:22:59;;;;;;;4.47;3.17;;;;;;;12.93;66.74;100562.53;4969026;28;102377;-72
2023/11/15 09:25:26;;;;;;;4.07;3.55;;;;;;;13.07;66.25;100560.09;4971959;28;98925;-71
2023/11/15 09:27:55;;;;;;;4.70;3.35;;;;;;;12.90;66.96;100564.50;4966344;28;98207;-71
2023/11/15 09:30:23;;;;;;;4.13;3.72;;;;;;;12.76;67.02;100578.41;4962778;28;97346;-71
2023/11/15 09:32:50;;;;;;;7.95;3.95;;;;;;;12.65;67.95;100573.63;4966942;28;99307;-70
2023/11/15 09:35:21;;;;;;;4.95;3.67;;;;;;;12.99;66.17;100583.50;4968411;28;99289;-71
2023/11/15 09:37:47;;;;;;;6.43;3.42;;;;;;;13.21;65.62;100582.47;4963079;28;96842;-70
2023/11/15 09:40:14;;;;;;;6.28;4.28;;;;;;;13.32;64.79;100591.66;4966556;28;98644;-70
2023/11/15 09:42:45;;;;;;;3.90;3.50;;;;;;;13.35;64.52;100594.13;4960756;28;99144;-71
2023/11/15 09:45:17;;;;;;;5.57;3.90;;;;;;;13.94;63.05;100595.56;4960070;28;98780;-73
2023/11/15 09:47:46;;;;;;;4.97;3.83;;;;;;;14.14;62.11;100598.06;4969009;28;97649;-71
2023/11/15 09:50:15;;;;;;;6.70;3.72;;;;;;;13.81;62.86;100602.44;4969172;28;96819;-70
2023/11/15 09:52:45;;;;;;;5.10;4.05;;;;;;;13.66;63.69;100605.88;4966465;28;98271;-70
2023/11/15 09:55:12;;;;;;;6.13;4.15;;;;;;;13.66;63.23;100604.06;4969973;28;101207;-70
2023/11/15 09:57:40;;;;;;;5.03;4.00;;;;;;;13.73;62.89;100613.47;4969976;28;97690;-70
2023/11/15 10:00:09;;;;;;;5.63;3.60;;;;;;;13.62;62.84;100615.78;4963710;28;97046;-70
2023/11/15 10:02:36;;;;;;;4.70;3.50;;;;;;;13.36;64.41;100614.44;4963520;28;98882;-70
2023/11/15 10:05:14;;;;;;;3.83;3.10;;;;;;;13.28;65.33;100623.69;4963943;28;99309;-70
2023/11/15 10:07:42;;;;;;;4.60;3.65;;;;;;;13.29;64.69;100617.47;4960326;28;97686;-69
2023/11/15 10:10:19;;;;;;;4.30;3.65;;;;;;;13.02;65.89;100612.50;4961664;28;101097;-71
2023/11/15 10:12:46;;;;;;;4.63;3.05;;;;;;;12.98;66.36;100624.22;4960551;28;97907;-71
2023/11/15 10:15:13;;;;;;;4.78;3.53;;;;;;;13.35;64.98;100620.66;4968167;28;98847;-71
2023/11/15 10:17:42;;;;;;;5.40;4.15;;;;;;;13.50;64.26;100635.00;4964377;28;100531;-70
2023/11/15 10:20:20;;;;;;;4.45;3.50;;;;;;;13.50;64.37;100627.03;4966039;28;99035;-72
2023/11/15 10:22:47;;;;;;;3.72;3.40;;;;;;;13.60;64.35;100624.75;4961139;28;99220;-70
2023/11/15 10:25:14;;;;;;;4.43;3.25;;;;;;;13.46;64.46;100631.63;4965253;28;99671;-71
2023/11/15 10:27:42;;;;;;;4.40;3.35;;;;;;;13.81;63.31;100635.19;4964688;28;99279;-70
2023/11/15 10:30:14;;;;;;;6.55;3.38;;;;;;;13.70;63.87;100626.03;4964960;28;96923;-70
2023/11/15 10:32:42;;;;;;;5.20;3.45;;;;;;;13.64;63.86;100639.63;4967546;28;98969;-71
2023/11/15 10:35:10;;;;;;;3.63;3.00;;;;;;;13.86;63.27;100634.94;4965812;28;98778;-69
2023/11/15 10:37:47;;;;;;;4.10;3.22;;;;;;;13.97;62.63;100648.56;4965567;28;98157;-70
2023/11/15 10:40:13;;;;;;;;;;;;;;;13.88;62.59;100651.66;4964631;28;96751;-70
2023/11/15 10:42:45;;;;;;;9.97;3.40;;;;;;;13.98;62.41;100656.41;4961934;28;102269;-69
2023/11/15 10:45:15;;;;;;;5.22;3.63;;;;;;;14.14;62.07;100651.19;4968579;28;101767;-70
2023/11/15 10:47:51;;;;;;;5.70;2.92;;;;;;;13.82;62.82;100654.63;4969758;28;96787;-71
2023/11/15 10:50:22;;;;;;;5.03;3.43;;;;;;;13.14;65.41;100662.38;4964131;28;97193;-71
2023/11/15 10:52:49;;;;;;;8.02;2.83;;;;;;;13.08;65.99;100661.75;4967643;28;99866;-70
2023/11/15 10:55:17;;;;;;;3.60;2.97;;;;;;;13.45;64.91;100661.78;4967892;28;97857;-70
2023/11/15 10:57:47;;;;;;;3.88;2.75;;;;;;;13.39;65.51;100667.34;4971850;28;96985;-71
2023/11/15 11:00:20;;;;;;;2.42;2.22;;;;;;;13.33;65.27;100672.09;4969148;28;97088;-70
2023/11/15 11:02:49;;;;;;;3.38;2.65;;;;;;;13.44;65.29;100683.06;4965561;28;101606;-70
2023/11/15 11:05:34;;;;;;;3.20;2.88;;;;;;;13.34;66.33;100681.78;4964210;28;98451;-70
2023/11/15 11:08:10;;;;;;;3.67;2.20;;;;;;;13.57;65.61;100685.06;4961244;28;97965;-75
2023/11/15 11:10:42;;;;;;;3.65;2.70;;;;;;;13.70;65.66;100685.31;4966091;28;96962;-75
2023/11/15 11:13:21;;;;;;;5.22;2.53;;;;;;;13.84;64.91;100688.16;4966713;28;99075;-75
2023/11/15 11:15:49;;;;;;;3.80;2.53;;;;;;;13.69;65.46;100690.69;4966528;28;99079;-74
2023/11/15 11:18:17;;;;;;;5.25;2.80;;;;;;;13.81;65.07;100690.09;4966060;28;98400;-74
2023/11/15 11:20:56;;;;;;;4.40;2.67;;;;;;;13.93;63.62;100700.97;4964951;28;98584;-74
2023/11/15 11:23:22;;;;;;;4.85;2.45;;;;;;;13.77;64.01;100705.31;4965494;28;99180;-74
2023/11/15 11:25:51;;;;;;;3.47;2.40;;;;;;;13.98;63.83;100713.19;4966946;28;98824;-74
2023/11/15 11:28:20;;;;;;;2.42;2.00;;;;;;;13.89;62.47;100712.69;4966535;28;96996;-75